INFORMACIÓN METAR y TAF
METAR FOR EGFF
ADDS - METARS form results

(0710 UTC 12 November 2019)
Data provider http://aviationweather.gov/metar/data/
 
METAR text: EGFF 120650Z AUTO 29014KT 9999 NCD 05/02 Q1001
Conditions at: EGFF (CARDIFF-WALES AR, GB) observed 0650 UTC 12 November 2019
Temperature: 5.0°C (41°F)
Dewpoint: 2.0°C (36°F) [RH = 81%]
Pressure (altimeter): 29.56 inches Hg (1001.0 mb)
Winds: from the WNW (290 degrees) at 16 MPH (14 knots; 7.2 m/s)
Visibility: 6 or more miles (10+ km)
Ceiling: at least 12,000 feet AGL
Clouds: sky clear below 12,000 feet AGL
Weather: no significant weather observed at this time

METAR text: EGFF 120620Z AUTO 30016KT 9999 NCD 05/01 Q1001
Conditions at: EGFF (CARDIFF-WALES AR, GB) observed 0620 UTC 12 November 2019
Temperature: 5.0°C (41°F)
Dewpoint: 1.0°C (34°F) [RH = 75%]
Pressure (altimeter): 29.56 inches Hg (1001.0 mb)
Winds: from the WNW (300 degrees) at 18 MPH (16 knots; 8.2 m/s)
Visibility: 6 or more miles (10+ km)
Ceiling: at least 12,000 feet AGL
Clouds: sky clear below 12,000 feet AGL
Weather: no significant weather observed at this time

Forecast for: EGFF (CARDIFF-WALES AR, GB)
Text: TAF EGFF 120506Z 1206/1306 30016KT 9999 SCT022
Forecast period: 0600 UTC 12 November 2019 to 0600 UTC 13 November 2019
Forecast type: FROM: standard forecast or significant change
Winds: from the WNW (300 degrees) at 18 MPH (16 knots; 8.2 m/s)
Visibility: 6 or more miles 10+ km)
Ceiling: at least 12,000 feet AGL
Clouds: scattered clouds at 2200 feet AGL
Weather: no significant weather forecast for this period
Text: TEMPO 1206/1221 30020G33KT
Forecast period: 0600 to 2100 UTC 12 November 2019
Forecast type: TEMPORARY: The following changes expected for less than half the time period
Winds: from the WNW (300 degrees) at 23 MPH (20 knots; 10.3 m/s)
gusting to 38 MPH (33 knots; 17.0 m/s)
Visibility: missing
Ceiling: unknown
Clouds: missing
Weather: no significant weather forecast for this period
Text: PROB40
Forecast period: 0600 UTC 12 November 2019 to 0000 UTC 13 November 2019
Forecast type: TEMPORARY: The following changes expected for less than half the time period
Visibility: 4 miles (7 km)
Ceiling: unknown
Clouds: missing
Weather: SHRA  (rain showers)

 MAPA DE AEROPUERTO

 INFORMACIÓN DE PISTA
Pista 12 Longitud 7848 ft Ancho 151 ft
Elevación 205 ft Umbral desplazado 797 ft Rumbo de pista 117
Pista 30 Longitud 7848 ft Ancho 151 ft
Elevación 213 ft Umbral desplazado 551 ft Rumbo de pista 297

 FRECUANCIAS DEL AEROPUERTO
Tipo APP Nombre Cardiff Ap Frecuencia 119.15 MHZ
Tipo APP Nombre Cardiff Ra Frecuencia 125.85 MHZ
Tipo ATIS Nombre ATIS Frecuencia 132.475 MHZ
Tipo Radar Nombre Frecuencia 133.6 MHZ
Tipo TWR Nombre Cardiff Tw Frecuencia 133.1 MHZ

 RADIO AYUDAS DEL AEROPUERTO